Blue Image — 3EXO5 — position and weather

sailwx.info

Track history (hours):
 
Tides and Currents Weather Stations Pressure Air Temp Water Temp Dewpoint Dewpoint Depression Visibility Wind Speed Wind Dir Waves Ship Positions

Blue Image

Last reported at 2015-Mar-30 20:22 UTC. Time now 2015-Mar-31 22:00 UTC.
Position N 40°52' E 028°26'.

Length 160 m; draft 9.6 m.

Type: Cargo ship. MMSI: 351960000.

Date/timePositionNaut miles runAvg speedWind from/ knotsBaromVisibWave heightAir tempDewpointWater temp
2015-Mar-30 20:22N 40°52' E 028°26'1011.9
2015-Mar-30 19:33N 40°54' E 028°38'1211.9
2015-Mar-30 18:32N 40°56' E 028°54'2310.1
2015-Mar-30 16:14N 41°17' E 029°08'5 7.0
2015-Mar-30 15:34N 41°21' E 029°11'8 7.9
2015-Mar-30 14:33N 41°25' E 029°21'1 1.2
2015-Mar-30 13:34N 41°25' E 029°22'0 0.1
2015-Mar-30 12:34N 41°25' E 029°22'3 0.7
2015-Mar-30 08:19N 41°23' E 029°19'3 3.9
2015-Mar-30 07:33N 41°20' E 029°20'11 1.0
2015-Mar-29 20:34N 41°30' E 029°29'38212.2
2015-Mar-28 13:08N 44°22' E 037°14'  
2015-Mar-23 16:20N 41°29' E 029°26'1011.9
2015-Mar-23 15:32N 41°22' E 029°18'27 8.9
2015-Mar-23 12:33N 40°59' E 028°60'8 7.6
2015-Mar-23 11:32N 40°52' E 028°54'4 3.5
2015-Mar-23 10:22N 40°48' E 028°53'0 0.3
2015-Mar-23 09:30N 40°48' E 028°53'0 0.2
2015-Mar-23 08:32N 40°48' E 028°53'0 0.3
2015-Mar-23 07:31N 40°48' E 028°53'2 2.3
2015-Mar-23 06:33N 40°50' E 028°52'1 0.8
2015-Mar-23 05:33N 40°49' E 028°52'1 0.7
2015-Mar-23 04:33N 40°49' E 028°52'1 0.8
2015-Mar-23 03:33N 40°48' E 028°52'1 0.8
2015-Mar-23 02:33N 40°47' E 028°53'1 0.6
2015-Mar-23 01:32N 40°47' E 028°53'0 0.3
2015-Mar-23 00:33N 40°46' E 028°53'0 0.3
2015-Mar-22 23:31N 40°46' E 028°53'0 0.5
2015-Mar-22 22:33N 40°47' E 028°54'1 0.7
2015-Mar-22 21:33N 40°47' E 028°55'1 1.2
2015-Mar-22 20:33N 40°48' E 028°53'1 0.9
2015-Mar-22 19:31N 40°49' E 028°53'2 1.6
2015-Mar-22 18:31N 40°50' E 028°51'1 1.0
2015-Mar-22 17:30N 40°49' E 028°52'1 0.6
2015-Mar-22 16:31N 40°49' E 028°53'0 0.2
2015-Mar-22 15:33N 40°49' E 028°53'0 0.2
2015-Mar-22 14:32N 40°49' E 028°53'0 0.2
2015-Mar-22 13:33N 40°49' E 028°54'1 0.7
2015-Mar-22 12:31N 40°48' E 028°54'3 3.3
2015-Mar-22 11:33N 40°51' E 028°56'4 3.9
2015-Mar-22 10:33N 40°50' E 028°51'1110.8
2015-Mar-22 09:33N 40°50' E 028°37'  
Track history (hours):
 
Tides and Currents Weather Stations Pressure Air Temp Water Temp Dewpoint Dewpoint Depression Visibility Wind Speed Wind Dir Waves Ship Positions

Blue Image

Last reported at 2015-Mar-30 20:22 UTC. Time now 2015-Mar-31 22:00 UTC.
Position N 40°52' E 028°26'.

Length 160 m; draft 9.6 m.

Type: Cargo ship. MMSI: 351960000.

Date/timePositionNaut miles runAvg speedWind from/ knotsBaromVisibWave heightAir tempDewpointWater temp
2015-Mar-30 20:22N 40°52' E 028°26'1011.9
2015-Mar-30 19:33N 40°54' E 028°38'1211.9
2015-Mar-30 18:32N 40°56' E 028°54'2310.1
2015-Mar-30 16:14N 41°17' E 029°08'5 7.0
2015-Mar-30 15:34N 41°21' E 029°11'8 7.9
2015-Mar-30 14:33N 41°25' E 029°21'1 1.2
2015-Mar-30 13:34N 41°25' E 029°22'0 0.1
2015-Mar-30 12:34N 41°25' E 029°22'3 0.7
2015-Mar-30 08:19N 41°23' E 029°19'3 3.9
2015-Mar-30 07:33N 41°20' E 029°20'11 1.0
2015-Mar-29 20:34N 41°30' E 029°29'38212.2
2015-Mar-28 13:08N 44°22' E 037°14'  
2015-Mar-23 16:20N 41°29' E 029°26'1011.9
2015-Mar-23 15:32N 41°22' E 029°18'27 8.9
2015-Mar-23 12:33N 40°59' E 028°60'8 7.6
2015-Mar-23 11:32N 40°52' E 028°54'4 3.5
2015-Mar-23 10:22N 40°48' E 028°53'0 0.3
2015-Mar-23 09:30N 40°48' E 028°53'0 0.2
2015-Mar-23 08:32N 40°48' E 028°53'0 0.3
2015-Mar-23 07:31N 40°48' E 028°53'2 2.3
2015-Mar-23 06:33N 40°50' E 028°52'1 0.8
2015-Mar-23 05:33N 40°49' E 028°52'1 0.7
2015-Mar-23 04:33N 40°49' E 028°52'1 0.8
2015-Mar-23 03:33N 40°48' E 028°52'1 0.8
2015-Mar-23 02:33N 40°47' E 028°53'1 0.6
2015-Mar-23 01:32N 40°47' E 028°53'0 0.3
2015-Mar-23 00:33N 40°46' E 028°53'0 0.3
2015-Mar-22 23:31N 40°46' E 028°53'0 0.5
2015-Mar-22 22:33N 40°47' E 028°54'1 0.7
2015-Mar-22 21:33N 40°47' E 028°55'1 1.2
2015-Mar-22 20:33N 40°48' E 028°53'1 0.9
2015-Mar-22 19:31N 40°49' E 028°53'2 1.6
2015-Mar-22 18:31N 40°50' E 028°51'1 1.0
2015-Mar-22 17:30N 40°49' E 028°52'1 0.6
2015-Mar-22 16:31N 40°49' E 028°53'0 0.2
2015-Mar-22 15:33N 40°49' E 028°53'0 0.2
2015-Mar-22 14:32N 40°49' E 028°53'0 0.2
2015-Mar-22 13:33N 40°49' E 028°54'1 0.7
2015-Mar-22 12:31N 40°48' E 028°54'3 3.3
2015-Mar-22 11:33N 40°51' E 028°56'4 3.9
2015-Mar-22 10:33N 40°50' E 028°51'1110.8
2015-Mar-22 09:33N 40°50' E 028°37'  

Dump ship's entire track history